CPX323 Details

Departure: Austin-Bergstrom International Airport (KAUS)
Arrival: Miami International Airport (KMIA) at N/A
Route: ILEXY2 ZENZI IAH J86 LEV Q102 BAGGS SSCOT5
Notes:


Current Weather Information
KAUS 251056Z 18003KT 7SM BKN004 24/23 A2986 RMK AO2 T02440233
KMIA 251053Z 00000KT 10SM FEW025 SCT250 27/24 A2991 RMK AO2 SLP129 CB DSNT SW T02670244